sensor_id;sensor_type;location;lat;lon;timestamp;P1;durP1;ratioP1;P2;durP2;ratioP2
67160;SDS011;54088;52.238;21.104;2022-08-25T00:00:45;16.00;;;4.03;;
67160;SDS011;54088;52.238;21.104;2022-08-25T00:03:12;8.88;;;3.38;;
67160;SDS011;54088;52.238;21.104;2022-08-25T00:05:38;11.98;;;4.55;;
67160;SDS011;54088;52.238;21.104;2022-08-25T00:08:04;10.70;;;3.47;;
67160;SDS011;54088;52.238;21.104;2022-08-25T00:10:32;14.07;;;4.43;;
67160;SDS011;54088;52.238;21.104;2022-08-25T00:13:00;11.30;;;3.20;;
67160;SDS011;54088;52.238;21.104;2022-08-25T00:15:27;12.57;;;3.60;;
67160;SDS011;54088;52.238;21.104;2022-08-25T00:17:55;11.75;;;4.18;;
67160;SDS011;54088;52.238;21.104;2022-08-25T00:20:21;13.88;;;3.90;;
67160;SDS011;54088;52.238;21.104;2022-08-25T00:22:47;14.20;;;4.15;;
67160;SDS011;54088;52.238;21.104;2022-08-25T00:25:13;14.13;;;4.22;;
67160;SDS011;54088;52.238;21.104;2022-08-25T00:27:40;11.45;;;4.22;;
67160;SDS011;54088;52.238;21.104;2022-08-25T00:30:06;12.27;;;3.92;;
67160;SDS011;54088;52.238;21.104;2022-08-25T00:32:32;8.93;;;3.60;;
67160;SDS011;54088;52.238;21.104;2022-08-25T00:34:58;11.07;;;4.13;;
67160;SDS011;54088;52.238;21.104;2022-08-25T00:37:24;13.90;;;4.72;;
67160;SDS011;54088;52.238;21.104;2022-08-25T00:39:51;12.48;;;4.25;;
67160;SDS011;54088;52.238;21.104;2022-08-25T00:42:17;17.15;;;4.65;;
67160;SDS011;54088;52.238;21.104;2022-08-25T00:44:44;13.48;;;4.38;;
67160;SDS011;54088;52.238;21.104;2022-08-25T00:47:11;11.50;;;3.90;;
67160;SDS011;54088;52.238;21.104;2022-08-25T00:49:44;9.90;;;4.05;;
67160;SDS011;54088;52.238;21.104;2022-08-25T00:57:15;15.40;;;4.25;;
67160;SDS011;54088;52.238;21.104;2022-08-25T00:59:42;12.07;;;4.32;;
67160;SDS011;54088;52.238;21.104;2022-08-25T01:02:08;10.73;;;3.55;;
67160;SDS011;54088;52.238;21.104;2022-08-25T01:04:35;12.70;;;4.05;;
67160;SDS011;54088;52.238;21.104;2022-08-25T01:07:01;14.40;;;4.63;;
67160;SDS011;54088;52.238;21.104;2022-08-25T01:09:28;15.95;;;4.68;;
67160;SDS011;54088;52.238;21.104;2022-08-25T01:11:56;11.95;;;4.85;;
67160;SDS011;54088;52.238;21.104;2022-08-25T01:14:22;14.52;;;4.72;;
67160;SDS011;54088;52.238;21.104;2022-08-25T01:16:49;12.48;;;4.45;;
67160;SDS011;54088;52.238;21.104;2022-08-25T01:19:15;15.32;;;4.68;;
67160;SDS011;54088;52.238;21.104;2022-08-25T01:21:43;11.45;;;4.45;;
67160;SDS011;54088;52.238;21.104;2022-08-25T01:24:13;10.30;;;4.53;;
67160;SDS011;54088;52.238;21.104;2022-08-25T01:26:53;13.05;;;4.20;;
67160;SDS011;54088;52.238;21.104;2022-08-25T01:29:18;13.82;;;4.75;;
67160;SDS011;54088;52.238;21.104;2022-08-25T01:31:50;14.80;;;4.85;;
67160;SDS011;54088;52.238;21.104;2022-08-25T01:34:20;15.43;;;4.70;;
67160;SDS011;54088;52.238;21.104;2022-08-25T01:36:46;13.30;;;4.78;;
67160;SDS011;54088;52.238;21.104;2022-08-25T01:39:13;15.02;;;5.05;;
67160;SDS011;54088;52.238;21.104;2022-08-25T01:44:23;15.43;;;4.78;;
67160;SDS011;54088;52.238;21.104;2022-08-25T01:46:50;15.57;;;5.68;;
67160;SDS011;54088;52.238;21.104;2022-08-25T01:49:17;15.80;;;5.15;;
67160;SDS011;54088;52.238;21.104;2022-08-25T01:51:43;19.77;;;5.07;;
67160;SDS011;54088;52.238;21.104;2022-08-25T01:54:21;12.50;;;4.85;;
67160;SDS011;54088;52.238;21.104;2022-08-25T01:56:46;16.65;;;5.22;;
67160;SDS011;54088;52.238;21.104;2022-08-25T01:59:14;23.40;;;6.32;;
67160;SDS011;54088;52.238;21.104;2022-08-25T02:01:41;17.30;;;6.53;;
67160;SDS011;54088;52.238;21.104;2022-08-25T02:04:07;16.88;;;5.43;;
67160;SDS011;54088;52.238;21.104;2022-08-25T02:06:33;18.60;;;6.20;;
67160;SDS011;54088;52.238;21.104;2022-08-25T02:09:00;22.30;;;6.88;;
67160;SDS011;54088;52.238;21.104;2022-08-25T02:11:29;19.00;;;6.45;;
67160;SDS011;54088;52.238;21.104;2022-08-25T02:13:56;15.70;;;7.05;;
67160;SDS011;54088;52.238;21.104;2022-08-25T02:16:24;17.92;;;6.47;;
67160;SDS011;54088;52.238;21.104;2022-08-25T02:18:54;19.70;;;7.13;;
67160;SDS011;54088;52.238;21.104;2022-08-25T02:21:20;21.95;;;6.60;;
67160;SDS011;54088;52.238;21.104;2022-08-25T02:23:47;20.52;;;6.60;;
67160;SDS011;54088;52.238;21.104;2022-08-25T02:26:12;24.17;;;7.00;;
67160;SDS011;54088;52.238;21.104;2022-08-25T02:28:43;12.25;;;6.32;;
67160;SDS011;54088;52.238;21.104;2022-08-25T02:31:10;13.15;;;6.47;;
67160;SDS011;54088;52.238;21.104;2022-08-25T02:33:36;18.63;;;7.25;;
67160;SDS011;54088;52.238;21.104;2022-08-25T02:36:02;16.13;;;6.40;;
67160;SDS011;54088;52.238;21.104;2022-08-25T02:38:29;21.98;;;6.57;;
67160;SDS011;54088;52.238;21.104;2022-08-25T02:40:56;18.02;;;7.65;;
67160;SDS011;54088;52.238;21.104;2022-08-25T02:43:23;25.27;;;6.72;;
67160;SDS011;54088;52.238;21.104;2022-08-25T02:45:50;19.73;;;6.47;;
67160;SDS011;54088;52.238;21.104;2022-08-25T02:48:16;18.58;;;6.75;;
67160;SDS011;54088;52.238;21.104;2022-08-25T02:50:46;20.55;;;7.00;;
67160;SDS011;54088;52.238;21.104;2022-08-25T02:53:12;24.40;;;6.90;;
67160;SDS011;54088;52.238;21.104;2022-08-25T02:55:38;19.80;;;6.10;;
67160;SDS011;54088;52.238;21.104;2022-08-25T02:58:04;20.88;;;7.60;;
67160;SDS011;54088;52.238;21.104;2022-08-25T03:00:30;17.92;;;6.85;;
67160;SDS011;54088;52.238;21.104;2022-08-25T03:02:55;19.75;;;7.45;;
67160;SDS011;54088;52.238;21.104;2022-08-25T03:05:21;19.55;;;6.93;;
67160;SDS011;54088;52.238;21.104;2022-08-25T03:07:47;18.52;;;7.00;;
67160;SDS011;54088;52.238;21.104;2022-08-25T03:10:14;22.88;;;7.47;;
67160;SDS011;54088;52.238;21.104;2022-08-25T03:12:42;19.20;;;7.22;;
67160;SDS011;54088;52.238;21.104;2022-08-25T03:15:09;20.45;;;7.20;;
67160;SDS011;54088;52.238;21.104;2022-08-25T03:17:40;21.05;;;7.82;;
67160;SDS011;54088;52.238;21.104;2022-08-25T03:20:06;22.63;;;7.00;;
67160;SDS011;54088;52.238;21.104;2022-08-25T03:22:32;18.33;;;7.35;;
67160;SDS011;54088;52.238;21.104;2022-08-25T03:24:58;23.10;;;7.60;;
67160;SDS011;54088;52.238;21.104;2022-08-25T03:27:42;23.67;;;7.28;;
67160;SDS011;54088;52.238;21.104;2022-08-25T03:30:08;19.65;;;7.72;;
67160;SDS011;54088;52.238;21.104;2022-08-25T03:32:35;21.73;;;7.82;;
67160;SDS011;54088;52.238;21.104;2022-08-25T03:35:02;23.08;;;7.97;;
67160;SDS011;54088;52.238;21.104;2022-08-25T03:37:28;18.70;;;8.02;;
67160;SDS011;54088;52.238;21.104;2022-08-25T03:39:54;26.92;;;7.45;;
67160;SDS011;54088;52.238;21.104;2022-08-25T03:42:19;22.88;;;7.38;;
67160;SDS011;54088;52.238;21.104;2022-08-25T03:44:45;20.27;;;7.25;;
67160;SDS011;54088;52.238;21.104;2022-08-25T03:47:11;25.63;;;8.35;;
67160;SDS011;54088;52.238;21.104;2022-08-25T03:49:36;21.08;;;7.60;;
67160;SDS011;54088;52.238;21.104;2022-08-25T03:52:02;20.17;;;7.15;;
67160;SDS011;54088;52.238;21.104;2022-08-25T03:54:28;28.73;;;7.88;;
67160;SDS011;54088;52.238;21.104;2022-08-25T03:56:54;19.15;;;7.68;;
67160;SDS011;54088;52.238;21.104;2022-08-25T03:59:19;22.42;;;8.48;;
67160;SDS011;54088;52.238;21.104;2022-08-25T04:01:45;24.80;;;8.50;;
67160;SDS011;54088;52.238;21.104;2022-08-25T04:04:12;17.98;;;7.60;;
67160;SDS011;54088;52.238;21.104;2022-08-25T04:06:40;27.73;;;8.70;;
67160;SDS011;54088;52.238;21.104;2022-08-25T04:09:07;21.50;;;7.82;;
67160;SDS011;54088;52.238;21.104;2022-08-25T04:11:33;25.15;;;8.02;;
67160;SDS011;54088;52.238;21.104;2022-08-25T04:13:59;17.70;;;7.80;;
67160;SDS011;54088;52.238;21.104;2022-08-25T04:16:27;24.83;;;8.40;;
67160;SDS011;54088;52.238;21.104;2022-08-25T04:18:55;31.42;;;9.23;;
67160;SDS011;54088;52.238;21.104;2022-08-25T04:21:22;22.20;;;8.73;;
67160;SDS011;54088;52.238;21.104;2022-08-25T04:23:49;28.15;;;9.38;;
67160;SDS011;54088;52.238;21.104;2022-08-25T04:26:21;25.13;;;8.32;;
67160;SDS011;54088;52.238;21.104;2022-08-25T04:28:48;25.20;;;8.73;;
67160;SDS011;54088;52.238;21.104;2022-08-25T04:31:15;20.90;;;8.15;;
67160;SDS011;54088;52.238;21.104;2022-08-25T04:33:42;21.17;;;8.20;;
67160;SDS011;54088;52.238;21.104;2022-08-25T04:36:09;22.42;;;7.65;;
67160;SDS011;54088;52.238;21.104;2022-08-25T04:38:39;19.80;;;8.85;;
67160;SDS011;54088;52.238;21.104;2022-08-25T04:41:06;28.83;;;9.95;;
67160;SDS011;54088;52.238;21.104;2022-08-25T04:43:33;25.42;;;8.00;;
67160;SDS011;54088;52.238;21.104;2022-08-25T04:46:07;23.50;;;9.25;;
67160;SDS011;54088;52.238;21.104;2022-08-25T04:48:36;24.00;;;8.80;;
67160;SDS011;54088;52.238;21.104;2022-08-25T04:51:08;20.73;;;8.88;;
67160;SDS011;54088;52.238;21.104;2022-08-25T04:53:35;25.75;;;8.15;;
67160;SDS011;54088;52.238;21.104;2022-08-25T04:56:04;28.90;;;9.23;;
67160;SDS011;54088;52.238;21.104;2022-08-25T04:58:31;23.52;;;8.13;;
67160;SDS011;54088;52.238;21.104;2022-08-25T05:01:01;23.10;;;9.82;;
67160;SDS011;54088;52.238;21.104;2022-08-25T05:03:34;29.02;;;9.32;;
67160;SDS011;54088;52.238;21.104;2022-08-25T05:06:01;26.33;;;9.60;;
67160;SDS011;54088;52.238;21.104;2022-08-25T05:08:27;27.40;;;9.20;;
67160;SDS011;54088;52.238;21.104;2022-08-25T05:10:53;25.20;;;9.13;;
67160;SDS011;54088;52.238;21.104;2022-08-25T05:13:20;25.48;;;9.40;;
67160;SDS011;54088;52.238;21.104;2022-08-25T05:15:54;31.17;;;8.65;;
67160;SDS011;54088;52.238;21.104;2022-08-25T05:18:23;29.48;;;8.80;;
67160;SDS011;54088;52.238;21.104;2022-08-25T05:20:50;24.42;;;8.77;;
67160;SDS011;54088;52.238;21.104;2022-08-25T05:23:18;28.75;;;8.93;;
67160;SDS011;54088;52.238;21.104;2022-08-25T05:25:45;31.60;;;9.25;;
67160;SDS011;54088;52.238;21.104;2022-08-25T05:28:11;27.45;;;8.45;;
67160;SDS011;54088;52.238;21.104;2022-08-25T05:30:37;31.48;;;9.10;;
67160;SDS011;54088;52.238;21.104;2022-08-25T05:33:04;27.73;;;8.85;;
67160;SDS011;54088;52.238;21.104;2022-08-25T05:35:30;28.58;;;9.43;;
67160;SDS011;54088;52.238;21.104;2022-08-25T05:37:55;26.30;;;9.40;;
67160;SDS011;54088;52.238;21.104;2022-08-25T05:40:22;30.58;;;9.43;;
67160;SDS011;54088;52.238;21.104;2022-08-25T05:42:48;26.00;;;9.10;;
67160;SDS011;54088;52.238;21.104;2022-08-25T05:45:14;32.38;;;9.02;;
67160;SDS011;54088;52.238;21.104;2022-08-25T05:47:40;28.25;;;8.73;;
67160;SDS011;54088;52.238;21.104;2022-08-25T05:50:05;28.73;;;8.85;;
67160;SDS011;54088;52.238;21.104;2022-08-25T05:52:33;28.00;;;9.10;;
67160;SDS011;54088;52.238;21.104;2022-08-25T05:54:58;24.23;;;8.50;;
67160;SDS011;54088;52.238;21.104;2022-08-25T05:57:24;32.35;;;9.55;;
67160;SDS011;54088;52.238;21.104;2022-08-25T05:59:50;27.52;;;8.35;;
67160;SDS011;54088;52.238;21.104;2022-08-25T06:02:17;26.85;;;8.30;;
67160;SDS011;54088;52.238;21.104;2022-08-25T06:05:01;28.73;;;8.65;;
67160;SDS011;54088;52.238;21.104;2022-08-25T06:07:26;25.83;;;8.50;;
67160;SDS011;54088;52.238;21.104;2022-08-25T06:09:52;24.92;;;8.48;;
67160;SDS011;54088;52.238;21.104;2022-08-25T06:12:18;30.20;;;8.80;;
67160;SDS011;54088;52.238;21.104;2022-08-25T06:14:46;23.80;;;8.48;;
67160;SDS011;54088;52.238;21.104;2022-08-25T06:17:13;28.95;;;8.70;;
67160;SDS011;54088;52.238;21.104;2022-08-25T06:19:39;33.97;;;9.07;;
67160;SDS011;54088;52.238;21.104;2022-08-25T06:22:05;27.63;;;7.97;;
67160;SDS011;54088;52.238;21.104;2022-08-25T06:24:31;22.08;;;7.90;;
67160;SDS011;54088;52.238;21.104;2022-08-25T06:26:57;38.80;;;10.27;;
67160;SDS011;54088;52.238;21.104;2022-08-25T06:29:22;24.92;;;8.60;;
67160;SDS011;54088;52.238;21.104;2022-08-25T06:31:48;26.95;;;8.48;;
67160;SDS011;54088;52.238;21.104;2022-08-25T06:34:15;20.17;;;7.45;;
67160;SDS011;54088;52.238;21.104;2022-08-25T06:36:42;24.52;;;7.97;;
67160;SDS011;54088;52.238;21.104;2022-08-25T06:39:08;21.00;;;7.57;;
67160;SDS011;54088;52.238;21.104;2022-08-25T06:41:34;23.80;;;8.63;;
67160;SDS011;54088;52.238;21.104;2022-08-25T06:44:00;29.08;;;9.65;;
67160;SDS011;54088;52.238;21.104;2022-08-25T06:46:26;24.45;;;7.93;;
67160;SDS011;54088;52.238;21.104;2022-08-25T06:48:53;24.30;;;8.40;;
67160;SDS011;54088;52.238;21.104;2022-08-25T06:51:21;22.73;;;8.20;;
67160;SDS011;54088;52.238;21.104;2022-08-25T06:53:47;19.55;;;8.25;;
67160;SDS011;54088;52.238;21.104;2022-08-25T06:56:14;26.05;;;8.43;;
67160;SDS011;54088;52.238;21.104;2022-08-25T06:58:41;23.05;;;7.60;;
67160;SDS011;54088;52.238;21.104;2022-08-25T07:01:07;28.85;;;8.68;;
67160;SDS011;54088;52.238;21.104;2022-08-25T07:03:38;21.70;;;8.02;;
67160;SDS011;54088;52.238;21.104;2022-08-25T07:06:04;20.63;;;6.63;;
67160;SDS011;54088;52.238;21.104;2022-08-25T07:08:30;27.48;;;8.00;;
67160;SDS011;54088;52.238;21.104;2022-08-25T07:10:56;21.48;;;7.72;;
67160;SDS011;54088;52.238;21.104;2022-08-25T07:13:22;23.80;;;8.00;;
67160;SDS011;54088;52.238;21.104;2022-08-25T07:15:52;22.50;;;7.93;;
67160;SDS011;54088;52.238;21.104;2022-08-25T07:18:19;23.25;;;7.45;;
67160;SDS011;54088;52.238;21.104;2022-08-25T07:20:44;22.90;;;7.00;;
67160;SDS011;54088;52.238;21.104;2022-08-25T07:23:10;24.63;;;6.85;;
67160;SDS011;54088;52.238;21.104;2022-08-25T07:25:36;21.95;;;7.22;;
67160;SDS011;54088;52.238;21.104;2022-08-25T07:28:02;24.95;;;7.97;;
67160;SDS011;54088;52.238;21.104;2022-08-25T07:30:28;22.52;;;7.57;;
67160;SDS011;54088;52.238;21.104;2022-08-25T07:32:54;24.38;;;7.90;;
67160;SDS011;54088;52.238;21.104;2022-08-25T07:35:19;16.58;;;6.65;;
67160;SDS011;54088;52.238;21.104;2022-08-25T07:37:51;20.83;;;7.25;;
67160;SDS011;54088;52.238;21.104;2022-08-25T07:40:23;25.95;;;7.93;;
67160;SDS011;54088;52.238;21.104;2022-08-25T07:42:54;24.30;;;7.10;;
67160;SDS011;54088;52.238;21.104;2022-08-25T07:45:23;22.90;;;7.55;;
67160;SDS011;54088;52.238;21.104;2022-08-25T07:48:02;22.30;;;8.13;;
67160;SDS011;54088;52.238;21.104;2022-08-25T07:50:30;18.02;;;7.63;;
67160;SDS011;54088;52.238;21.104;2022-08-25T07:52:56;20.02;;;7.47;;
67160;SDS011;54088;52.238;21.104;2022-08-25T07:55:24;19.95;;;6.45;;
67160;SDS011;54088;52.238;21.104;2022-08-25T07:57:52;17.35;;;6.80;;
67160;SDS011;54088;52.238;21.104;2022-08-25T08:00:18;22.98;;;7.22;;
67160;SDS011;54088;52.238;21.104;2022-08-25T08:02:44;22.30;;;7.20;;
67160;SDS011;54088;52.238;21.104;2022-08-25T08:05:10;17.15;;;7.00;;
67160;SDS011;54088;52.238;21.104;2022-08-25T08:07:37;20.88;;;7.15;;
67160;SDS011;54088;52.238;21.104;2022-08-25T08:10:03;15.00;;;6.45;;
67160;SDS011;54088;52.238;21.104;2022-08-25T08:12:30;27.45;;;7.15;;
67160;SDS011;54088;52.238;21.104;2022-08-25T08:14:58;21.27;;;7.88;;
67160;SDS011;54088;52.238;21.104;2022-08-25T08:17:24;20.95;;;7.20;;
67160;SDS011;54088;52.238;21.104;2022-08-25T08:19:50;21.35;;;7.75;;
67160;SDS011;54088;52.238;21.104;2022-08-25T08:22:16;17.77;;;7.03;;
67160;SDS011;54088;52.238;21.104;2022-08-25T08:24:42;20.88;;;7.88;;
67160;SDS011;54088;52.238;21.104;2022-08-25T08:27:11;19.77;;;6.45;;
67160;SDS011;54088;52.238;21.104;2022-08-25T08:29:38;21.42;;;6.05;;
67160;SDS011;54088;52.238;21.104;2022-08-25T08:32:06;17.90;;;6.22;;
67160;SDS011;54088;52.238;21.104;2022-08-25T08:34:33;14.80;;;6.03;;
67160;SDS011;54088;52.238;21.104;2022-08-25T08:37:00;24.13;;;6.18;;
67160;SDS011;54088;52.238;21.104;2022-08-25T08:39:27;19.58;;;6.30;;
67160;SDS011;54088;52.238;21.104;2022-08-25T08:50:05;17.80;;;6.88;;
67160;SDS011;54088;52.238;21.104;2022-08-25T08:55:27;11.60;;;5.93;;
67160;SDS011;54088;52.238;21.104;2022-08-25T08:58:01;17.27;;;6.07;;
67160;SDS011;54088;52.238;21.104;2022-08-25T09:00:43;20.27;;;6.45;;
67160;SDS011;54088;52.238;21.104;2022-08-25T09:03:31;18.88;;;6.80;;
67160;SDS011;54088;52.238;21.104;2022-08-25T09:06:09;17.77;;;6.57;;
67160;SDS011;54088;52.238;21.104;2022-08-25T09:08:44;22.05;;;7.35;;
67160;SDS011;54088;52.238;21.104;2022-08-25T09:23:03;21.50;;;7.32;;
67160;SDS011;54088;52.238;21.104;2022-08-25T09:28:50;20.15;;;7.38;;
67160;SDS011;54088;52.238;21.104;2022-08-25T09:31:31;20.45;;;7.28;;
67160;SDS011;54088;52.238;21.104;2022-08-25T09:34:00;19.85;;;7.50;;
67160;SDS011;54088;52.238;21.104;2022-08-25T09:36:28;22.10;;;7.88;;
67160;SDS011;54088;52.238;21.104;2022-08-25T09:38:54;19.42;;;5.60;;
67160;SDS011;54088;52.238;21.104;2022-08-25T09:44:24;19.77;;;4.75;;
67160;SDS011;54088;52.238;21.104;2022-08-25T09:49:41;11.73;;;4.82;;
67160;SDS011;54088;52.238;21.104;2022-08-25T09:52:16;15.38;;;5.22;;
67160;SDS011;54088;52.238;21.104;2022-08-25T09:54:56;16.23;;;4.28;;
67160;SDS011;54088;52.238;21.104;2022-08-25T10:02:40;12.35;;;4.18;;
67160;SDS011;54088;52.238;21.104;2022-08-25T10:05:19;16.15;;;4.43;;
67160;SDS011;54088;52.238;21.104;2022-08-25T10:07:56;18.98;;;4.70;;
67160;SDS011;54088;52.238;21.104;2022-08-25T10:12:52;11.02;;;4.47;;
67160;SDS011;54088;52.238;21.104;2022-08-25T10:15:20;15.68;;;4.45;;
67160;SDS011;54088;52.238;21.104;2022-08-25T10:17:49;11.68;;;3.60;;
67160;SDS011;54088;52.238;21.104;2022-08-25T10:21:33;10.43;;;3.60;;
67160;SDS011;54088;52.238;21.104;2022-08-25T10:24:00;9.82;;;3.00;;
67160;SDS011;54088;52.238;21.104;2022-08-25T10:50:12;10.52;;;3.58;;
67160;SDS011;54088;52.238;21.104;2022-08-25T11:01:17;11.32;;;3.58;;
67160;SDS011;54088;52.238;21.104;2022-08-25T11:04:04;12.05;;;3.55;;
67160;SDS011;54088;52.238;21.104;2022-08-25T11:06:51;10.10;;;3.85;;
67160;SDS011;54088;52.238;21.104;2022-08-25T11:09:24;12.88;;;3.60;;
67160;SDS011;54088;52.238;21.104;2022-08-25T11:11:58;10.93;;;3.45;;
67160;SDS011;54088;52.238;21.104;2022-08-25T11:14:37;10.48;;;3.35;;
67160;SDS011;54088;52.238;21.104;2022-08-25T11:17:13;11.18;;;3.25;;
67160;SDS011;54088;52.238;21.104;2022-08-25T11:19:49;11.07;;;3.90;;
67160;SDS011;54088;52.238;21.104;2022-08-25T11:22:23;12.38;;;3.85;;
67160;SDS011;54088;52.238;21.104;2022-08-25T11:30:11;10.15;;;3.67;;
67160;SDS011;54088;52.238;21.104;2022-08-25T11:32:49;9.10;;;3.67;;
67160;SDS011;54088;52.238;21.104;2022-08-25T11:35:17;10.02;;;3.67;;
67160;SDS011;54088;52.238;21.104;2022-08-25T11:49:23;8.02;;;3.45;;
67160;SDS011;54088;52.238;21.104;2022-08-25T11:52:40;7.55;;;3.30;;
67160;SDS011;54088;52.238;21.104;2022-08-25T11:58:39;11.65;;;4.00;;
67160;SDS011;54088;52.238;21.104;2022-08-25T12:10:07;7.87;;;3.10;;
67160;SDS011;54088;52.238;21.104;2022-08-25T12:12:28;12.27;;;3.13;;
67160;SDS011;54088;52.238;21.104;2022-08-25T12:30:56;8.10;;;3.45;;
67160;SDS011;54088;52.238;21.104;2022-08-25T12:33:31;11.27;;;3.38;;
67160;SDS011;54088;52.238;21.104;2022-08-25T12:36:09;9.05;;;3.42;;
67160;SDS011;54088;52.238;21.104;2022-08-25T12:38:49;7.90;;;3.53;;
67160;SDS011;54088;52.238;21.104;2022-08-25T12:41:18;8.30;;;3.15;;
67160;SDS011;54088;52.238;21.104;2022-08-25T12:43:48;9.05;;;3.35;;
67160;SDS011;54088;52.238;21.104;2022-08-25T12:48:57;8.43;;;3.10;;
67160;SDS011;54088;52.238;21.104;2022-08-25T12:51:53;7.60;;;3.20;;
67160;SDS011;54088;52.238;21.104;2022-08-25T12:54:52;8.25;;;3.75;;
67160;SDS011;54088;52.238;21.104;2022-08-25T12:57:44;8.95;;;3.58;;
67160;SDS011;54088;52.238;21.104;2022-08-25T13:00:23;9.68;;;3.45;;
67160;SDS011;54088;52.238;21.104;2022-08-25T13:16:16;8.80;;;3.00;;
67160;SDS011;54088;52.238;21.104;2022-08-25T13:18:44;7.25;;;2.92;;
67160;SDS011;54088;52.238;21.104;2022-08-25T13:21:17;6.38;;;3.17;;
67160;SDS011;54088;52.238;21.104;2022-08-25T13:23:49;7.65;;;3.38;;
67160;SDS011;54088;52.238;21.104;2022-08-25T13:27:00;6.35;;;3.10;;
67160;SDS011;54088;52.238;21.104;2022-08-25T13:31:50;7.03;;;2.80;;
67160;SDS011;54088;52.238;21.104;2022-08-25T13:34:18;7.72;;;3.03;;
67160;SDS011;54088;52.238;21.104;2022-08-25T13:36:47;8.23;;;2.95;;
67160;SDS011;54088;52.238;21.104;2022-08-25T13:39:32;8.45;;;2.72;;
67160;SDS011;54088;52.238;21.104;2022-08-25T13:41:59;7.68;;;3.20;;
67160;SDS011;54088;52.238;21.104;2022-08-25T13:44:28;8.20;;;2.85;;
67160;SDS011;54088;52.238;21.104;2022-08-25T13:47:15;8.88;;;2.97;;
67160;SDS011;54088;52.238;21.104;2022-08-25T13:50:06;6.65;;;3.30;;
67160;SDS011;54088;52.238;21.104;2022-08-25T13:55:20;9.03;;;3.00;;
67160;SDS011;54088;52.238;21.104;2022-08-25T13:57:52;6.90;;;3.03;;
67160;SDS011;54088;52.238;21.104;2022-08-25T14:00:32;5.95;;;2.83;;
67160;SDS011;54088;52.238;21.104;2022-08-25T14:03:04;12.00;;;3.30;;
67160;SDS011;54088;52.238;21.104;2022-08-25T14:05:32;6.03;;;2.85;;
67160;SDS011;54088;52.238;21.104;2022-08-25T14:08:01;6.72;;;3.20;;
67160;SDS011;54088;52.238;21.104;2022-08-25T14:13:10;7.95;;;3.00;;
67160;SDS011;54088;52.238;21.104;2022-08-25T14:15:51;5.63;;;2.92;;
67160;SDS011;54088;52.238;21.104;2022-08-25T14:18:21;9.27;;;3.22;;
67160;SDS011;54088;52.238;21.104;2022-08-25T14:20:55;7.15;;;2.80;;
67160;SDS011;54088;52.238;21.104;2022-08-25T14:23:25;9.73;;;3.25;;
67160;SDS011;54088;52.238;21.104;2022-08-25T14:25:54;11.95;;;3.78;;
67160;SDS011;54088;52.238;21.104;2022-08-25T14:28:23;7.10;;;3.45;;
67160;SDS011;54088;52.238;21.104;2022-08-25T14:30:52;7.55;;;3.13;;
67160;SDS011;54088;52.238;21.104;2022-08-25T14:33:21;7.95;;;3.35;;
67160;SDS011;54088;52.238;21.104;2022-08-25T14:35:51;6.32;;;2.78;;
67160;SDS011;54088;52.238;21.104;2022-08-25T14:38:17;8.52;;;3.50;;
67160;SDS011;54088;52.238;21.104;2022-08-25T14:40:44;6.93;;;3.22;;
67160;SDS011;54088;52.238;21.104;2022-08-25T14:43:10;7.45;;;3.38;;
67160;SDS011;54088;52.238;21.104;2022-08-25T14:45:38;9.38;;;3.63;;
67160;SDS011;54088;52.238;21.104;2022-08-25T14:50:32;8.85;;;3.40;;
67160;SDS011;54088;52.238;21.104;2022-08-25T14:52:59;6.97;;;3.20;;
67160;SDS011;54088;52.238;21.104;2022-08-25T14:55:26;11.07;;;3.45;;
67160;SDS011;54088;52.238;21.104;2022-08-25T14:57:52;9.73;;;3.75;;
67160;SDS011;54088;52.238;21.104;2022-08-25T15:00:17;8.70;;;2.92;;
67160;SDS011;54088;52.238;21.104;2022-08-25T15:02:43;7.22;;;2.72;;
67160;SDS011;54088;52.238;21.104;2022-08-25T15:05:12;8.55;;;3.72;;
67160;SDS011;54088;52.238;21.104;2022-08-25T15:07:41;7.18;;;2.90;;
67160;SDS011;54088;52.238;21.104;2022-08-25T15:10:25;12.90;;;4.10;;
67160;SDS011;54088;52.238;21.104;2022-08-25T15:12:51;7.72;;;3.15;;
67160;SDS011;54088;52.238;21.104;2022-08-25T15:15:17;9.00;;;2.92;;
67160;SDS011;54088;52.238;21.104;2022-08-25T15:17:43;6.97;;;2.90;;
67160;SDS011;54088;52.238;21.104;2022-08-25T15:20:11;11.65;;;4.10;;
67160;SDS011;54088;52.238;21.104;2022-08-25T15:22:36;8.70;;;2.88;;
67160;SDS011;54088;52.238;21.104;2022-08-25T15:25:02;6.82;;;2.60;;
67160;SDS011;54088;52.238;21.104;2022-08-25T15:27:28;8.85;;;2.85;;
67160;SDS011;54088;52.238;21.104;2022-08-25T15:29:54;9.68;;;3.05;;
67160;SDS011;54088;52.238;21.104;2022-08-25T15:32:19;7.68;;;2.78;;
67160;SDS011;54088;52.238;21.104;2022-08-25T15:34:46;10.27;;;3.30;;
67160;SDS011;54088;52.238;21.104;2022-08-25T15:37:13;7.88;;;3.17;;
67160;SDS011;54088;52.238;21.104;2022-08-25T15:39:40;7.25;;;2.75;;
67160;SDS011;54088;52.238;21.104;2022-08-25T15:42:07;9.13;;;3.30;;
67160;SDS011;54088;52.238;21.104;2022-08-25T15:44:34;9.50;;;3.20;;
67160;SDS011;54088;52.238;21.104;2022-08-25T15:47:00;8.23;;;3.30;;
67160;SDS011;54088;52.238;21.104;2022-08-25T15:49:26;8.27;;;3.33;;
67160;SDS011;54088;52.238;21.104;2022-08-25T15:51:53;8.20;;;2.83;;
67160;SDS011;54088;52.238;21.104;2022-08-25T15:54:19;8.15;;;2.95;;
67160;SDS011;54088;52.238;21.104;2022-08-25T15:56:50;9.43;;;3.15;;
67160;SDS011;54088;52.238;21.104;2022-08-25T15:59:16;8.40;;;2.75;;
67160;SDS011;54088;52.238;21.104;2022-08-25T16:01:41;8.55;;;2.80;;
67160;SDS011;54088;52.238;21.104;2022-08-25T16:04:08;8.15;;;2.70;;
67160;SDS011;54088;52.238;21.104;2022-08-25T16:06:34;7.07;;;2.70;;
67160;SDS011;54088;52.238;21.104;2022-08-25T16:09:00;7.68;;;3.17;;
67160;SDS011;54088;52.238;21.104;2022-08-25T16:11:28;7.63;;;3.30;;
67160;SDS011;54088;52.238;21.104;2022-08-25T16:13:55;8.20;;;2.50;;
67160;SDS011;54088;52.238;21.104;2022-08-25T16:16:21;6.10;;;2.72;;
67160;SDS011;54088;52.238;21.104;2022-08-25T16:18:49;7.72;;;3.33;;
67160;SDS011;54088;52.238;21.104;2022-08-25T16:21:17;6.93;;;2.90;;
67160;SDS011;54088;52.238;21.104;2022-08-25T16:23:48;7.53;;;2.88;;
67160;SDS011;54088;52.238;21.104;2022-08-25T16:26:14;9.18;;;3.17;;
67160;SDS011;54088;52.238;21.104;2022-08-25T16:28:40;9.13;;;2.95;;
67160;SDS011;54088;52.238;21.104;2022-08-25T16:31:08;7.68;;;3.10;;
67160;SDS011;54088;52.238;21.104;2022-08-25T16:33:34;6.70;;;2.60;;
67160;SDS011;54088;52.238;21.104;2022-08-25T16:36:07;9.77;;;3.10;;
67160;SDS011;54088;52.238;21.104;2022-08-25T16:38:38;9.38;;;2.97;;
67160;SDS011;54088;52.238;21.104;2022-08-25T16:41:06;11.63;;;3.08;;
67160;SDS011;54088;52.238;21.104;2022-08-25T16:43:33;8.00;;;3.03;;
67160;SDS011;54088;52.238;21.104;2022-08-25T16:45:59;8.55;;;2.88;;
67160;SDS011;54088;52.238;21.104;2022-08-25T16:48:26;9.75;;;3.28;;
67160;SDS011;54088;52.238;21.104;2022-08-25T16:50:53;11.50;;;2.80;;
67160;SDS011;54088;52.238;21.104;2022-08-25T16:53:18;7.60;;;2.90;;
67160;SDS011;54088;52.238;21.104;2022-08-25T16:56:03;8.80;;;2.97;;
67160;SDS011;54088;52.238;21.104;2022-08-25T16:58:29;7.88;;;2.90;;
67160;SDS011;54088;52.238;21.104;2022-08-25T17:01:06;6.85;;;3.00;;
67160;SDS011;54088;52.238;21.104;2022-08-25T17:03:33;9.02;;;3.65;;
67160;SDS011;54088;52.238;21.104;2022-08-25T17:06:00;9.27;;;3.40;;
67160;SDS011;54088;52.238;21.104;2022-08-25T17:08:26;8.32;;;3.00;;